createdAt,value
2018-10-15T00:01:37.282Z,12.60
2018-10-15T00:04:03.805Z,12.60
2018-10-15T00:06:30.586Z,12.71
2018-10-15T00:11:30.553Z,12.71
2018-10-15T00:13:59.193Z,12.99
2018-10-15T00:16:25.976Z,12.95
2018-10-15T00:18:55.909Z,12.74
2018-10-15T00:21:22.429Z,12.89
2018-10-15T00:23:48.896Z,12.83
2018-10-15T00:26:15.573Z,12.94
2018-10-15T00:28:43.093Z,12.87
2018-10-15T00:33:58.773Z,12.78
2018-10-15T00:46:40.525Z,12.72
2018-10-15T00:51:40.841Z,12.82
2018-10-15T00:54:11.261Z,12.54
2018-10-15T00:56:38.867Z,12.64
2018-10-15T01:01:43.502Z,12.97
2018-10-15T01:06:42.841Z,12.94
2018-10-15T01:09:11.473Z,13.04
2018-10-15T01:11:39.746Z,13.10
2018-10-15T01:14:07.741Z,13.23
2018-10-15T01:21:40.221Z,12.73
2018-10-15T01:26:41.116Z,12.50
2018-10-15T01:29:08.741Z,12.59
2018-10-15T01:31:36.615Z,12.58
2018-10-15T01:34:04.000Z,12.43
2018-10-15T01:36:31.278Z,12.36
2018-10-15T01:38:58.367Z,12.37
2018-10-15T01:41:25.060Z,12.16
2018-10-15T01:46:25.443Z,12.34
2018-10-15T01:48:52.273Z,12.33
2018-10-15T01:51:20.178Z,11.99
2018-10-15T01:53:48.151Z,11.87
2018-10-15T01:56:16.620Z,12.16
2018-10-15T01:58:44.757Z,12.26
2018-10-15T02:01:12.252Z,12.36
2018-10-15T02:03:39.777Z,12.38
2018-10-15T02:06:06.562Z,12.43
2018-10-15T02:08:33.982Z,12.43
2018-10-15T02:11:02.533Z,12.51
2018-10-15T02:13:31.252Z,12.52
2018-10-15T02:15:58.486Z,12.55
2018-10-15T02:18:25.770Z,12.58
2018-10-15T02:20:55.305Z,12.35
2018-10-15T02:25:55.519Z,11.77
2018-10-15T02:28:24.291Z,11.75
2018-10-15T02:30:51.864Z,11.67
2018-10-15T02:33:19.831Z,11.79
2018-10-15T02:35:47.936Z,11.96
2018-10-15T02:38:16.600Z,11.82
2018-10-15T02:40:44.632Z,11.94
2018-10-15T02:43:13.372Z,11.63
2018-10-15T02:45:41.624Z,11.84
2018-10-15T02:48:09.433Z,11.71
2018-10-15T02:53:13.876Z,11.83
2018-10-15T02:55:42.257Z,11.97
2018-10-15T02:58:10.303Z,11.93
2018-10-15T03:00:38.827Z,11.85
2018-10-15T03:03:06.233Z,12.03
2018-10-15T03:05:33.443Z,12.07
2018-10-15T03:08:00.286Z,12.07
2018-10-15T03:10:26.810Z,11.99
2018-10-15T03:12:54.427Z,11.90
2018-10-15T03:15:22.339Z,11.74
2018-10-15T03:17:51.075Z,11.72
2018-10-15T03:20:19.399Z,11.62
2018-10-15T03:22:46.377Z,11.41
2018-10-15T03:25:12.946Z,11.39
2018-10-15T03:27:39.423Z,11.29
2018-10-15T03:30:05.928Z,11.53
2018-10-15T03:32:32.454Z,11.64
2018-10-15T03:34:58.930Z,11.69
2018-10-15T03:37:25.918Z,11.54
2018-10-15T03:39:52.459Z,11.30
2018-10-15T03:42:18.900Z,11.51
2018-10-15T03:44:45.346Z,11.62
2018-10-15T03:47:11.950Z,11.62
2018-10-15T03:49:38.551Z,11.48
2018-10-15T03:52:05.000Z,11.64
2018-10-15T03:54:31.518Z,11.31
2018-10-15T03:59:30.319Z,11.29
2018-10-15T04:01:57.697Z,11.41
2018-10-15T04:04:24.273Z,11.54
2018-10-15T04:06:50.737Z,11.43
2018-10-15T04:09:17.240Z,11.37
2018-10-15T04:11:44.020Z,11.33
2018-10-15T04:14:10.516Z,11.37
2018-10-15T04:16:37.410Z,11.17
2018-10-15T04:19:04.538Z,11.28
2018-10-15T04:21:32.472Z,11.31
2018-10-15T04:23:59.214Z,11.15
2018-10-15T04:28:58.196Z,11.27
2018-10-15T04:31:25.173Z,11.41
2018-10-15T04:33:51.677Z,11.61
2018-10-15T04:36:18.397Z,11.65
2018-10-15T04:38:45.078Z,11.82
2018-10-15T04:41:11.555Z,11.89
2018-10-15T04:43:38.067Z,11.83
2018-10-15T04:46:04.610Z,11.90
2018-10-15T04:48:31.196Z,11.76
2018-10-15T04:53:29.293Z,11.24
2018-10-15T04:55:55.851Z,11.25
2018-10-15T04:58:22.352Z,11.28
2018-10-15T05:05:52.661Z,10.96
2018-10-15T05:08:19.279Z,11.17
2018-10-15T05:10:45.753Z,11.27
2018-10-15T05:13:12.669Z,11.56
2018-10-15T05:15:39.190Z,11.53
2018-10-15T05:18:05.646Z,11.43
2018-10-15T05:20:32.372Z,11.59
2018-10-15T05:22:58.988Z,11.51
2018-10-15T05:25:25.781Z,11.79
2018-10-15T05:27:52.600Z,11.81
2018-10-15T05:30:19.340Z,11.84
2018-10-15T05:32:45.901Z,11.76
2018-10-15T05:35:12.527Z,11.75
2018-10-15T05:37:38.993Z,11.98
2018-10-15T05:40:05.496Z,12.17
2018-10-15T05:42:32.010Z,12.16
2018-10-15T05:44:58.516Z,12.06
2018-10-15T05:47:25.017Z,12.10
2018-10-15T05:52:23.496Z,12.42
2018-10-15T05:54:49.958Z,12.65
2018-10-15T05:57:16.469Z,12.94
2018-10-15T05:59:43.012Z,13.11
2018-10-15T06:02:09.517Z,13.22
2018-10-15T06:04:35.985Z,13.29
2018-10-15T06:07:02.521Z,13.07
2018-10-15T06:09:29.016Z,12.74
2018-10-15T06:11:55.521Z,12.62
2018-10-15T06:14:22.118Z,12.28
2018-10-15T06:16:48.692Z,12.05
2018-10-15T06:19:15.196Z,12.34
2018-10-15T06:21:41.724Z,12.72
2018-10-15T06:24:09.165Z,13.07
2018-10-15T06:26:35.892Z,13.16
2018-10-15T06:29:02.573Z,12.84
2018-10-15T06:31:29.189Z,12.93
2018-10-15T06:33:59.156Z,13.26
2018-10-15T06:36:25.648Z,13.46
2018-10-15T06:38:52.189Z,13.93
2018-10-15T06:41:18.789Z,14.03
2018-10-15T06:43:45.659Z,14.07
2018-10-15T06:46:12.272Z,13.89
2018-10-15T06:48:39.042Z,14.14
2018-10-15T06:51:05.634Z,14.40
2018-10-15T06:53:32.392Z,14.40
2018-10-15T06:55:58.995Z,14.77
2018-10-15T06:58:25.655Z,14.91
2018-10-15T07:00:52.153Z,14.77
2018-10-15T07:03:18.706Z,14.81
2018-10-15T07:05:45.728Z,14.85
2018-10-15T07:08:12.266Z,15.12
2018-10-15T07:10:38.893Z,15.33
2018-10-15T07:13:05.499Z,15.40
2018-10-15T07:15:32.170Z,15.59
2018-10-15T07:17:58.718Z,15.67
2018-10-15T07:20:25.389Z,15.81
2018-10-15T07:22:52.106Z,15.55
2018-10-15T07:25:18.770Z,15.43
2018-10-15T07:27:46.100Z,15.31
2018-10-15T07:30:12.649Z,15.55
2018-10-15T07:32:39.362Z,15.64
2018-10-15T07:35:06.629Z,15.59
2018-10-15T07:37:33.189Z,15.78
2018-10-15T07:39:59.841Z,15.75
2018-10-15T07:42:26.577Z,16.02
2018-10-15T07:44:53.064Z,16.06
2018-10-15T07:47:19.568Z,16.02
2018-10-15T07:49:46.650Z,16.13
2018-10-15T07:52:13.150Z,16.22
2018-10-15T07:54:40.676Z,15.95
2018-10-15T07:57:07.335Z,16.14
2018-10-15T07:59:33.826Z,16.32
2018-10-15T08:02:00.327Z,16.80
2018-10-15T08:04:27.012Z,16.80
2018-10-15T08:06:53.470Z,16.73
2018-10-15T08:09:19.974Z,16.82
2018-10-15T08:11:46.476Z,16.96
2018-10-15T08:14:12.983Z,16.85
2018-10-15T08:16:39.648Z,16.89
2018-10-15T08:19:06.163Z,17.01
2018-10-15T08:21:32.620Z,17.29
2018-10-15T08:23:59.123Z,17.68
2018-10-15T08:26:28.915Z,17.83
2018-10-15T08:28:55.489Z,17.81
2018-10-15T08:31:21.983Z,17.60
2018-10-15T08:33:48.486Z,17.36
2018-10-15T08:36:14.968Z,17.94
2018-10-15T08:38:41.719Z,18.32
2018-10-15T08:41:08.302Z,18.27
2018-10-15T08:43:35.010Z,18.06
2018-10-15T08:46:01.562Z,18.12
2018-10-15T08:48:28.184Z,17.71
2018-10-15T08:50:54.664Z,18.08
2018-10-15T08:53:22.351Z,18.07
2018-10-15T08:55:48.916Z,18.73
2018-10-15T08:58:15.722Z,19.22
2018-10-15T09:00:42.484Z,19.45
2018-10-15T09:03:10.452Z,19.15
2018-10-15T09:08:09.056Z,19.99
2018-10-15T09:10:36.720Z,19.88
2018-10-15T09:13:03.265Z,20.19
2018-10-15T09:15:31.166Z,20.00
2018-10-15T09:20:29.502Z,20.13
2018-10-15T09:22:55.953Z,20.21
2018-10-15T09:25:22.546Z,20.32
2018-10-15T09:27:49.203Z,20.17
2018-10-15T09:30:15.827Z,19.93
2018-10-15T09:32:42.343Z,20.10
2018-10-15T09:35:08.936Z,20.57
2018-10-15T09:37:35.675Z,20.97
2018-10-15T09:40:02.764Z,20.89
2018-10-15T09:42:30.760Z,20.89
2018-10-15T09:44:57.401Z,21.09
2018-10-15T09:47:23.964Z,20.86
2018-10-15T09:49:50.552Z,21.28
2018-10-15T09:52:17.227Z,21.25
2018-10-15T09:54:43.706Z,21.34
2018-10-15T09:57:10.257Z,21.37
2018-10-15T09:59:36.823Z,21.51
2018-10-15T10:02:03.354Z,21.20
2018-10-15T10:04:29.962Z,20.85
2018-10-15T10:06:56.483Z,21.28
2018-10-15T10:09:23.159Z,21.44
2018-10-15T10:11:49.706Z,21.34
2018-10-15T10:14:16.266Z,21.10
2018-10-15T10:16:42.761Z,21.54
2018-10-15T10:21:42.560Z,21.75
2018-10-15T10:24:09.441Z,22.01
2018-10-15T10:26:35.993Z,22.16
2018-10-15T10:29:02.569Z,22.32
2018-10-15T10:31:29.201Z,22.19
2018-10-15T10:33:56.090Z,22.20
2018-10-15T10:36:23.409Z,21.83
2018-10-15T10:38:49.981Z,22.17
2018-10-15T10:41:17.190Z,22.25
2018-10-15T10:43:43.708Z,22.09
2018-10-15T10:46:11.501Z,22.28
2018-10-15T10:48:38.151Z,22.29
2018-10-15T10:53:36.175Z,22.26
2018-10-15T10:56:02.634Z,22.14
2018-10-15T10:58:29.173Z,22.51
2018-10-15T11:00:56.632Z,22.66
2018-10-15T11:03:23.174Z,22.91
2018-10-15T11:05:49.885Z,22.81
2018-10-15T11:08:16.609Z,22.82
2018-10-15T11:10:43.200Z,23.02
2018-10-15T11:13:09.635Z,23.19
2018-10-15T11:15:36.430Z,22.61
2018-10-15T11:18:02.888Z,22.78
2018-10-15T11:20:29.384Z,22.64
2018-10-15T11:22:55.917Z,22.91
2018-10-15T11:25:22.417Z,22.87
2018-10-15T11:27:48.908Z,22.81
2018-10-15T11:30:15.445Z,23.13
2018-10-15T11:32:41.966Z,22.95
2018-10-15T11:35:09.273Z,22.29
2018-10-15T11:37:35.999Z,22.85
2018-10-15T11:40:02.549Z,23.21
2018-10-15T11:42:29.063Z,23.20
2018-10-15T11:44:55.553Z,22.89
2018-10-15T11:47:22.077Z,22.85
2018-10-15T11:49:48.600Z,23.50
2018-10-15T11:52:15.106Z,23.80
2018-10-15T11:54:41.695Z,23.79
2018-10-15T11:57:12.575Z,23.81
2018-10-15T11:59:39.102Z,23.78
2018-10-15T12:02:05.577Z,23.78
2018-10-15T12:04:32.100Z,23.43
2018-10-15T12:07:02.182Z,23.34
2018-10-15T12:09:28.881Z,23.86
2018-10-15T12:11:55.323Z,23.77
2018-10-15T12:14:22.883Z,23.84
2018-10-15T12:16:49.407Z,23.80
2018-10-15T12:19:16.227Z,23.24
2018-10-15T12:21:42.749Z,23.09
2018-10-15T12:24:09.246Z,22.70
2018-10-15T12:26:36.070Z,22.64
2018-10-15T12:29:02.908Z,22.97
2018-10-15T12:31:29.408Z,23.03
2018-10-15T12:33:55.908Z,22.59
2018-10-15T12:36:22.470Z,22.40
2018-10-15T12:38:48.922Z,22.98
2018-10-15T12:41:15.413Z,23.00
2018-10-15T12:43:42.078Z,22.87
2018-10-15T12:46:09.532Z,22.69
2018-10-15T12:48:36.653Z,22.53
2018-10-15T12:51:05.555Z,22.73
2018-10-15T12:53:32.143Z,22.31
2018-10-15T12:55:58.750Z,21.92
2018-10-15T12:58:25.282Z,21.95
2018-10-15T13:00:51.795Z,22.09
2018-10-15T13:03:18.310Z,22.61
2018-10-15T13:05:44.804Z,22.88
2018-10-15T13:08:11.826Z,22.70
2018-10-15T13:10:38.295Z,22.41
2018-10-15T13:13:04.845Z,22.40
2018-10-15T13:15:31.342Z,21.99
2018-10-15T13:17:57.869Z,22.27
2018-10-15T13:20:24.463Z,22.55
2018-10-15T13:22:51.315Z,22.88
2018-10-15T13:25:18.025Z,22.73
2018-10-15T13:27:44.695Z,22.33
2018-10-15T13:30:11.185Z,22.42
2018-10-15T13:32:37.681Z,22.65
2018-10-15T13:35:04.212Z,22.33
2018-10-15T13:37:30.672Z,22.50
2018-10-15T13:39:57.150Z,22.60
2018-10-15T13:42:23.680Z,22.51
2018-10-15T13:44:50.274Z,22.55
2018-10-15T13:47:16.809Z,22.26
2018-10-15T13:49:43.355Z,21.78
2018-10-15T13:52:11.352Z,21.65
2018-10-15T13:54:37.913Z,21.68
2018-10-15T13:59:37.761Z,21.95
2018-10-15T14:02:04.211Z,21.88
2018-10-15T14:04:30.736Z,21.58
2018-10-15T14:06:58.750Z,21.71
2018-10-15T14:09:25.208Z,21.75
2018-10-15T14:11:51.752Z,21.78
2018-10-15T14:14:18.416Z,21.84
2018-10-15T14:16:45.022Z,21.58
2018-10-15T14:19:12.524Z,21.55
2018-10-15T14:24:10.909Z,21.32
2018-10-15T14:26:37.360Z,21.37
2018-10-15T14:29:03.899Z,21.42
2018-10-15T14:31:30.497Z,21.35
2018-10-15T14:33:57.009Z,21.11
2018-10-15T14:36:23.504Z,21.05
2018-10-15T14:38:51.088Z,21.00
2018-10-15T14:41:17.552Z,20.88
2018-10-15T14:43:44.071Z,20.80
2018-10-15T14:46:10.608Z,20.83
2018-10-15T14:48:37.374Z,20.88
2018-10-15T14:51:10.023Z,20.78
2018-10-15T14:53:36.549Z,20.78
2018-10-15T14:56:03.016Z,20.94
2018-10-15T14:58:33.086Z,20.99
2018-10-15T15:00:59.666Z,21.06
2018-10-15T15:03:26.368Z,21.22
2018-10-15T15:05:52.834Z,21.13
2018-10-15T15:08:19.385Z,20.93
2018-10-15T15:10:45.945Z,21.02
2018-10-15T15:13:12.449Z,21.15
2018-10-15T15:15:40.414Z,21.11
2018-10-15T15:18:06.897Z,20.99
2018-10-15T15:20:33.382Z,21.10
2018-10-15T15:22:59.953Z,21.10
2018-10-15T15:25:26.441Z,21.08
2018-10-15T15:27:52.990Z,20.72
2018-10-15T15:30:19.996Z,20.78
2018-10-15T15:32:46.965Z,20.87
2018-10-15T15:35:13.617Z,20.81
2018-10-15T15:37:40.158Z,20.71
2018-10-15T15:40:06.634Z,20.45
2018-10-15T15:42:33.120Z,20.20
2018-10-15T15:44:59.634Z,20.51
2018-10-15T15:47:26.125Z,20.37
2018-10-15T15:49:52.624Z,20.17
2018-10-15T15:52:19.291Z,20.04
2018-10-15T15:54:45.809Z,20.04
2018-10-15T15:57:12.329Z,20.06
2018-10-15T15:59:38.808Z,19.85
2018-10-15T16:02:05.297Z,19.81
2018-10-15T16:04:31.949Z,19.70
2018-10-15T16:09:31.143Z,19.73
2018-10-15T16:11:58.812Z,19.80
2018-10-15T16:14:25.366Z,19.50
2018-10-15T16:16:51.928Z,19.53
2018-10-15T16:19:25.465Z,19.47
2018-10-15T16:21:52.590Z,19.43
2018-10-15T16:24:19.079Z,19.19
2018-10-15T16:26:45.578Z,18.87
2018-10-15T16:29:13.617Z,19.10
2018-10-15T16:31:40.299Z,19.38
2018-10-15T16:34:07.422Z,19.39
2018-10-15T16:36:34.640Z,19.25
2018-10-15T16:39:01.162Z,19.07
2018-10-15T16:41:27.678Z,18.93
2018-10-15T16:43:54.244Z,18.92
2018-10-15T16:46:20.710Z,18.99
2018-10-15T16:48:47.305Z,18.86
2018-10-15T16:51:13.902Z,18.61
2018-10-15T16:53:40.597Z,18.69
2018-10-15T16:56:07.147Z,18.97
2018-10-15T16:58:33.736Z,19.02
2018-10-15T17:01:00.482Z,18.50
2018-10-15T17:03:26.996Z,18.54
2018-10-15T17:05:54.839Z,18.37
2018-10-15T17:08:21.453Z,18.51
2018-10-15T17:10:48.487Z,18.51
2018-10-15T17:13:15.345Z,18.14
2018-10-15T17:15:41.891Z,17.82
2018-10-15T17:18:08.399Z,18.01
2018-10-15T17:20:34.913Z,18.02
2018-10-15T17:23:01.987Z,18.02
2018-10-15T17:25:28.511Z,18.14
2018-10-15T17:27:55.077Z,18.18
2018-10-15T17:30:21.614Z,18.17
2018-10-15T17:32:48.157Z,18.04
2018-10-15T17:35:14.664Z,17.88
2018-10-15T17:37:41.257Z,18.13
2018-10-15T17:40:07.987Z,18.38
2018-10-15T17:42:40.795Z,18.38
2018-10-15T17:45:07.664Z,18.12
2018-10-15T17:47:34.212Z,17.85
2018-10-15T17:50:02.925Z,17.74
2018-10-15T17:52:29.533Z,17.69
2018-10-15T17:54:56.315Z,18.03
2018-10-15T17:57:22.857Z,18.04
2018-10-15T18:02:26.058Z,17.85
2018-10-15T18:04:52.564Z,17.95
2018-10-15T18:07:19.046Z,17.87
2018-10-15T18:09:45.614Z,17.79
2018-10-15T18:12:12.142Z,17.70
2018-10-15T18:14:39.361Z,17.70
2018-10-15T18:17:06.418Z,17.62
2018-10-15T18:19:32.931Z,17.59
2018-10-15T18:21:59.504Z,17.77
2018-10-15T18:24:26.122Z,18.03
2018-10-15T18:26:52.615Z,17.95
2018-10-15T18:29:19.076Z,17.83
2018-10-15T18:31:45.620Z,17.84
2018-10-15T18:34:12.183Z,17.77
2018-10-15T18:36:39.441Z,17.65
2018-10-15T18:39:06.200Z,17.57
2018-10-15T18:41:32.688Z,17.46
2018-10-15T18:43:59.326Z,17.23
2018-10-15T18:46:25.920Z,17.00
2018-10-15T18:48:52.587Z,17.03
2018-10-15T18:51:19.088Z,17.08
2018-10-15T18:53:46.872Z,17.24
2018-10-15T18:56:14.410Z,17.21
2018-10-15T18:58:40.917Z,17.40
2018-10-15T19:01:07.974Z,17.61
2018-10-15T19:03:34.677Z,17.62
2018-10-15T19:06:01.128Z,17.48
2018-10-15T19:08:27.706Z,17.41
2018-10-15T19:10:54.228Z,17.35
2018-10-15T19:13:20.716Z,17.25
2018-10-15T19:15:47.238Z,17.33
2018-10-15T19:18:14.809Z,17.41
2018-10-15T19:20:42.801Z,17.38
2018-10-15T19:23:09.732Z,17.56
2018-10-15T19:25:36.754Z,17.29
2018-10-15T19:28:04.254Z,17.24
2018-10-15T19:30:30.970Z,17.15
2018-10-15T19:32:57.961Z,16.90
2018-10-15T19:35:24.950Z,16.87
2018-10-15T19:37:53.505Z,16.80
2018-10-15T19:40:20.882Z,16.70
2018-10-15T19:42:47.815Z,16.90
2018-10-15T19:45:16.726Z,16.99
2018-10-15T19:47:44.680Z,17.04
2018-10-15T19:50:13.554Z,17.24
2018-10-15T19:52:40.974Z,17.23
2018-10-15T19:55:08.923Z,16.95
2018-10-15T19:57:36.474Z,16.85
2018-10-15T20:00:04.912Z,17.11
2018-10-15T20:02:32.523Z,17.30
2018-10-15T20:05:02.930Z,17.39
2018-10-15T20:07:31.013Z,17.10
2018-10-15T20:09:59.187Z,16.98
2018-10-15T20:12:27.641Z,16.87
2018-10-15T20:14:55.974Z,16.85
2018-10-15T20:17:23.137Z,16.68
2018-10-15T20:19:51.084Z,16.66
2018-10-15T20:22:18.624Z,16.54
2018-10-15T20:24:46.042Z,16.74
2018-10-15T20:27:13.213Z,16.74
2018-10-15T20:29:40.778Z,16.67
2018-10-15T20:32:08.776Z,16.54
2018-10-15T20:34:37.827Z,16.48
2018-10-15T20:37:05.842Z,16.58
2018-10-15T20:39:33.104Z,16.64
2018-10-15T20:42:02.557Z,16.70
2018-10-15T20:44:29.652Z,16.37
2018-10-15T20:46:56.810Z,16.24
2018-10-15T20:49:25.154Z,16.37
2018-10-15T20:51:55.184Z,16.96
2018-10-15T20:54:23.029Z,16.83
2018-10-15T20:56:50.487Z,17.02
2018-10-15T20:59:17.576Z,17.23
2018-10-15T21:01:45.557Z,17.17
2018-10-15T21:04:12.424Z,17.02
2018-10-15T21:06:39.390Z,16.98
2018-10-15T21:09:06.969Z,17.07
2018-10-15T21:11:34.385Z,17.11
2018-10-15T21:14:02.267Z,17.02
2018-10-15T21:16:30.136Z,16.87
2018-10-15T21:18:58.062Z,16.86
2018-10-15T21:21:26.059Z,16.90
2018-10-15T21:23:53.964Z,17.01
2018-10-15T21:26:20.552Z,16.91
2018-10-15T21:28:48.666Z,16.62
2018-10-15T21:31:17.037Z,16.53
2018-10-15T21:33:45.909Z,16.42
2018-10-15T21:36:13.375Z,16.51
2018-10-15T21:38:40.897Z,16.47
2018-10-15T21:41:08.771Z,16.94
2018-10-15T21:43:38.295Z,17.01
2018-10-15T21:46:06.213Z,16.80
2018-10-15T21:48:33.177Z,16.65
2018-10-15T21:51:01.069Z,16.60
2018-10-15T21:53:30.958Z,16.51
2018-10-15T21:55:59.044Z,16.21
2018-10-15T21:58:27.001Z,16.28
2018-10-15T22:00:55.438Z,16.28
2018-10-15T22:03:22.822Z,16.14
2018-10-15T22:05:53.431Z,16.15
2018-10-15T22:08:21.940Z,16.17
2018-10-15T22:10:49.690Z,16.09
2018-10-15T22:13:18.275Z,16.10
2018-10-15T22:15:47.128Z,16.43
2018-10-15T22:18:15.130Z,16.44
2018-10-15T22:20:44.018Z,16.30
2018-10-15T22:23:11.441Z,16.40
2018-10-15T22:25:38.886Z,16.30
2018-10-15T22:28:06.254Z,16.03
2018-10-15T22:30:33.892Z,15.96
2018-10-15T22:33:01.896Z,15.94
2018-10-15T22:35:30.100Z,15.83
2018-10-15T22:37:56.596Z,15.82
2018-10-15T22:40:23.838Z,15.83
2018-10-15T22:42:54.946Z,15.89
2018-10-15T22:45:23.125Z,15.58
2018-10-15T22:47:50.496Z,15.40
2018-10-15T22:50:20.005Z,15.89
2018-10-15T22:55:24.251Z,16.11
2018-10-15T22:57:52.337Z,16.07
2018-10-15T23:00:19.797Z,16.11
2018-10-15T23:02:48.375Z,16.01
2018-10-15T23:05:18.356Z,15.76
2018-10-15T23:07:46.418Z,15.65
2018-10-15T23:10:14.083Z,15.58
2018-10-15T23:12:46.787Z,15.70
2018-10-15T23:15:14.560Z,15.67
2018-10-15T23:17:43.384Z,15.68
2018-10-15T23:20:12.505Z,15.54
2018-10-15T23:22:39.649Z,15.28
2018-10-15T23:25:07.708Z,15.53
2018-10-15T23:27:35.378Z,15.59
2018-10-15T23:30:02.759Z,15.61
2018-10-15T23:32:33.546Z,15.49
2018-10-15T23:35:01.920Z,15.53
2018-10-15T23:37:31.177Z,15.20
2018-10-15T23:40:00.640Z,15.47
2018-10-15T23:42:29.109Z,15.66
2018-10-15T23:44:57.284Z,15.58
2018-10-15T23:47:26.749Z,15.51
2018-10-15T23:49:54.991Z,15.77
2018-10-15T23:52:23.213Z,15.81
2018-10-15T23:54:50.367Z,16.11
2018-10-15T23:57:18.105Z,15.82
2018-10-15T23:59:46.377Z,16.15
